Time;durP1;ratioP1;P1;durP2;ratioP2;P2;SDS_P1;SDS_P2;PMS_P1;PMS_P2;Temp;Humidity;BMP_temperature;BMP_pressure;BME280_temperature;BME280_humidity;BME280_pressure;Samples;Min_cycle;Max_cycle;Signal;HPM_P1;HPM_P2
2021/07/21 00:01:38;;;;;;;25.10;12.52;;;;;;;15.80;100.00;101587.34;5020665;28;20041;-64
2021/07/21 00:04:07;;;;;;;26.15;11.88;;;;;;;15.80;100.00;101590.88;5018048;28;20038;-64
2021/07/21 00:06:54;;;;;;;23.40;12.68;;;;;;;15.62;100.00;101591.16;5021313;28;20045;-64
2021/07/21 00:09:22;;;;;;;25.75;12.30;;;;;;;15.57;100.00;101582.75;5019923;28;20057;-63
2021/07/21 00:14:37;;;;;;;22.83;12.18;;;;;;;16.09;100.00;101575.84;5018144;28;20092;-63
2021/07/21 00:17:17;;;;;;;28.60;13.88;;;;;;;16.29;100.00;101572.66;5018837;28;20060;-63
2021/07/21 00:22:30;;;;;;;21.33;12.40;;;;;;;16.47;100.00;101556.97;5018067;28;20053;-64
2021/07/21 00:24:58;;;;;;;31.23;13.52;;;;;;;16.49;100.00;101554.91;5019695;28;20164;-64
2021/07/21 00:27:26;;;;;;;26.38;12.82;;;;;;;16.47;100.00;101567.75;5018209;28;20044;-64
2021/07/21 00:29:54;;;;;;;29.98;13.73;;;;;;;16.36;100.00;101568.22;5024026;28;20045;-64
2021/07/21 00:32:23;;;;;;;25.15;11.68;;;;;;;16.14;100.00;101576.13;5019407;28;20041;-64
2021/07/21 00:34:51;;;;;;;29.88;12.88;;;;;;;16.03;100.00;101579.25;5018601;28;20049;-64
2021/07/21 00:37:19;;;;;;;26.02;12.52;;;;;;;16.06;100.00;101570.84;5019363;28;20091;-63
2021/07/21 00:39:47;;;;;;;26.13;12.63;;;;;;;16.14;100.00;101573.44;5020921;28;20053;-64
2021/07/21 00:42:16;;;;;;;25.20;12.38;;;;;;;16.12;100.00;101571.97;5020974;28;20427;-63
2021/07/21 00:44:44;;;;;;;25.13;12.57;;;;;;;16.20;100.00;101571.03;5014983;28;20474;-64
2021/07/21 00:47:12;;;;;;;24.98;12.73;;;;;;;16.24;100.00;101572.34;5018140;28;20405;-63
2021/07/21 00:49:42;;;;;;;26.38;12.35;;;;;;;16.25;100.00;101582.13;5016865;28;20053;-64
2021/07/21 00:52:10;;;;;;;31.45;14.13;;;;;;;16.12;100.00;101580.88;5020775;28;20425;-63
2021/07/21 00:54:39;;;;;;;32.60;13.10;;;;;;;16.07;100.00;101577.88;5020251;28;20321;-63
2021/07/21 00:57:07;;;;;;;26.85;14.60;;;;;;;15.96;100.00;101570.22;5018268;28;20126;-63
2021/07/21 00:59:35;;;;;;;25.85;13.18;;;;;;;16.05;100.00;101571.84;5021394;28;20350;-63
2021/07/21 01:02:04;;;;;;;28.70;14.93;;;;;;;16.05;100.00;101573.69;5020670;28;20041;-63
2021/07/21 01:04:35;;;;;;;29.80;13.45;;;;;;;16.05;100.00;101573.69;5015705;28;20485;-64
2021/07/21 01:07:06;;;;;;;25.65;13.30;;;;;;;16.06;100.00;101569.97;5019905;28;20380;-65
2021/07/21 01:09:36;;;;;;;32.95;14.05;;;;;;;15.90;100.00;101570.94;5018055;28;20053;-64
2021/07/21 01:12:10;;;;;;;27.55;14.35;;;;;;;15.95;100.00;101565.88;5021649;28;20049;-63
2021/07/21 01:14:51;;;;;;;30.50;13.77;;;;;;;16.02;100.00;101566.81;5015175;28;20123;-64
2021/07/21 01:17:25;;;;;;;36.67;16.73;;;;;;;15.94;100.00;101572.28;5020632;28;20052;-63
2021/07/21 01:20:18;;;;;;;31.98;14.88;;;;;;;15.88;100.00;101573.84;5022116;28;20088;-63
2021/07/21 01:22:57;;;;;;;26.30;13.23;;;;;;;16.01;100.00;101584.81;5018252;28;20065;-64
2021/07/21 01:25:28;;;;;;;30.83;14.68;;;;;;;15.89;100.00;101571.97;5018622;28;20053;-64
2021/07/21 01:28:00;;;;;;;27.08;14.60;;;;;;;16.03;100.00;101579.25;5019540;28;20038;-64
2021/07/21 01:30:30;;;;;;;27.38;12.75;;;;;;;15.77;100.00;101576.91;5018441;28;20057;-64
2021/07/21 01:33:01;;;;;;;27.83;13.90;;;;;;;16.01;100.00;101578.59;5020018;28;20042;-64
2021/07/21 01:35:39;;;;;;;28.77;13.23;;;;;;;15.81;100.00;101589.03;5014135;28;20041;-64
2021/07/21 01:38:11;;;;;;;29.90;14.80;;;;;;;15.78;100.00;101590.19;5019446;28;20064;-64
2021/07/21 01:40:43;;;;;;;33.30;14.57;;;;;;;15.43;100.00;101594.28;5018045;28;20037;-64
2021/07/21 01:43:16;;;;;;;35.03;15.25;;;;;;;15.30;100.00;101589.47;5016896;28;20042;-64
2021/07/21 01:45:45;;;;;;;35.35;15.32;;;;;;;15.28;100.00;101594.16;5017563;28;20311;-64
2021/07/21 01:48:14;;;;;;;39.17;15.75;;;;;;;15.12;100.00;101597.78;5017309;28;20041;-64
2021/07/21 01:50:43;;;;;;;28.23;15.40;;;;;;;14.97;100.00;101592.28;5018634;28;20049;-64
2021/07/21 01:53:12;;;;;;;33.00;16.90;;;;;;;15.10;100.00;101597.94;5018643;28;20053;-64
2021/07/21 01:55:40;;;;;;;34.55;17.55;;;;;;;15.19;100.00;101603.31;5014746;28;20132;-64
2021/07/21 01:58:09;;;;;;;33.45;15.98;;;;;;;15.22;100.00;101595.69;5022779;28;20049;-63
2021/07/21 02:00:39;;;;;;;30.92;15.63;;;;;;;15.22;100.00;101602.94;5017641;28;20111;-64
2021/07/21 02:03:08;;;;;;;34.03;15.63;;;;;;;15.17;100.00;101608.00;5023268;28;20048;-64
2021/07/21 02:05:37;;;;;;;30.85;15.68;;;;;;;15.17;100.00;101603.47;5015799;28;20406;-64
2021/07/21 02:08:06;;;;;;;33.28;15.27;;;;;;;15.22;100.00;101602.94;5018420;28;20423;-64
2021/07/21 02:10:35;;;;;;;35.95;15.48;;;;;;;15.23;100.00;101596.56;5023340;28;20049;-64
2021/07/21 02:13:09;;;;;;;34.38;15.43;;;;;;;15.25;100.00;101597.22;5014110;28;20048;-63
2021/07/21 02:15:39;;;;;;;36.43;15.20;;;;;;;15.29;100.00;101601.22;5017701;28;20044;-63
2021/07/21 02:18:08;;;;;;;33.35;15.05;;;;;;;15.32;100.00;101600.88;5018510;28;20392;-64
2021/07/21 02:20:36;;;;;;;30.98;16.67;;;;;;;15.30;100.00;101597.53;5015291;28;20060;-64
2021/07/21 02:23:05;;;;;;;33.25;14.75;;;;;;;15.34;100.00;101596.19;5024092;28;20430;-63
2021/07/21 02:25:33;;;;;;;38.25;16.85;;;;;;;15.30;100.00;101592.16;5017849;28;20041;-64
2021/07/21 02:28:01;;;;;;;35.42;16.67;;;;;;;15.32;100.00;101590.13;5017608;28;20034;-63
2021/07/21 02:30:29;;;;;;;27.58;14.45;;;;;;;15.35;100.00;101597.81;5018523;28;20045;-63
2021/07/21 02:33:03;;;;;;;31.45;14.55;;;;;;;15.30;100.00;101602.91;5013032;28;20042;-64
2021/07/21 02:35:31;;;;;;;30.73;15.63;;;;;;;15.21;100.00;101602.13;5020129;28;20046;-63
2021/07/21 02:37:59;;;;;;;33.05;15.15;;;;;;;15.13;100.00;101607.53;5018125;28;20081;-63
2021/07/21 02:40:27;;;;;;;32.50;16.40;;;;;;;15.14;100.00;101601.16;5016960;28;20053;-63
2021/07/21 02:42:55;;;;;;;33.83;15.85;;;;;;;15.20;100.00;101591.53;5016495;28;20103;-63
2021/07/21 02:45:24;;;;;;;28.88;15.00;;;;;;;15.22;100.00;101597.56;5015779;28;20985;-63
2021/07/21 02:47:52;;;;;;;34.80;16.65;;;;;;;15.12;100.00;101590.53;5023661;28;20433;-63
2021/07/21 02:50:21;;;;;;;35.40;16.70;;;;;;;15.10;100.00;101589.88;5023566;28;20385;-63
2021/07/21 02:52:56;;;;;;;33.15;16.45;;;;;;;15.11;100.00;101596.94;5023619;28;20395;-64
2021/07/21 02:55:26;;;;;;;32.45;14.55;;;;;;;15.04;100.00;101598.66;5022429;28;20046;-64
2021/07/21 02:57:56;;;;;;;28.17;14.73;;;;;;;14.85;100.00;101601.75;5023468;28;20251;-63
2021/07/21 03:00:28;;;;;;;33.53;16.00;;;;;;;14.81;100.00;101601.22;5023047;28;20056;-64
2021/07/21 03:02:56;;;;;;;35.55;15.32;;;;;;;14.81;100.00;101595.84;5020464;28;20265;-64
2021/07/21 03:05:27;;;;;;;36.28;17.00;;;;;;;14.58;100.00;101598.41;5019328;28;20046;-64
2021/07/21 03:07:57;;;;;;;32.45;15.35;;;;;;;14.48;100.00;101603.13;5019796;28;20453;-63
2021/07/21 03:10:25;;;;;;;29.73;15.57;;;;;;;14.37;100.00;101604.28;5019352;28;20041;-64
2021/07/21 03:12:58;;;;;;;31.73;14.73;;;;;;;14.30;100.00;101612.19;5024204;28;20140;-64
2021/07/21 03:15:29;;;;;;;38.15;16.35;;;;;;;14.23;100.00;101611.19;5019617;28;20068;-63
2021/07/21 03:17:58;;;;;;;35.47;16.05;;;;;;;14.22;100.00;101613.03;5025959;28;20104;-64
2021/07/21 03:20:28;;;;;;;31.73;16.02;;;;;;;14.08;100.00;101619.09;5020688;28;20116;-64
2021/07/21 03:22:58;;;;;;;34.80;16.40;;;;;;;13.83;100.00;101620.88;5020313;28;20092;-63
2021/07/21 03:25:27;;;;;;;36.20;16.38;;;;;;;13.76;100.00;101626.94;5021164;28;20052;-64
2021/07/21 03:27:56;;;;;;;33.10;15.93;;;;;;;13.74;100.00;101626.22;5021155;28;20038;-64
2021/07/21 03:30:24;;;;;;;36.47;16.85;;;;;;;13.71;100.00;101629.25;5022866;28;20096;-64
2021/07/21 03:32:53;;;;;;;39.75;15.57;;;;;;;13.90;100.00;101624.59;5021720;28;20429;-63
2021/07/21 03:35:24;;;;;;;37.60;16.98;;;;;;;13.81;100.00;101642.53;5013832;28;20057;-63
2021/07/21 03:37:54;;;;;;;34.00;16.25;;;;;;;13.67;100.00;101632.44;5023777;28;20049;-63
2021/07/21 03:40:24;;;;;;;41.08;17.60;;;;;;;13.63;100.00;101628.41;5019157;28;20081;-64
2021/07/21 03:42:53;;;;;;;32.88;16.00;;;;;;;13.58;100.00;101635.09;5024598;28;20057;-64
2021/07/21 03:45:24;;;;;;;35.83;17.15;;;;;;;13.80;100.00;101623.91;5019209;28;20041;-64
2021/07/21 03:47:52;;;;;;;34.05;16.65;;;;;;;14.16;100.00;101623.59;5018091;28;20050;-64
2021/07/21 03:50:21;;;;;;;40.28;17.05;;;;;;;14.44;100.00;101619.59;5020024;28;20057;-64
2021/07/21 03:52:50;;;;;;;33.40;15.88;;;;;;;14.57;100.00;101613.69;5019706;28;20045;-64
2021/07/21 03:55:21;;;;;;;32.05;16.17;;;;;;;14.68;100.00;101606.31;5021377;28;20326;-63
2021/07/21 03:57:49;;;;;;;35.60;16.52;;;;;;;14.72;100.00;101605.78;5021924;28;20056;-63
2021/07/21 04:00:19;;;;;;;31.85;15.02;;;;;;;14.73;100.00;101603.94;5021000;28;20049;-63
2021/07/21 04:02:52;;;;;;;34.00;16.75;;;;;;;14.65;100.00;101604.78;5021042;28;20053;-64
2021/07/21 04:05:21;;;;;;;34.25;14.85;;;;;;;14.61;100.00;101611.50;5018073;28;20524;-64
2021/07/21 04:07:49;;;;;;;33.05;15.48;;;;;;;14.56;100.00;101611.16;5019707;28;20046;-64
2021/07/21 04:10:19;;;;;;;36.47;17.13;;;;;;;14.41;100.00;101608.31;5019693;28;20064;-64
2021/07/21 04:12:48;;;;;;;37.20;16.23;;;;;;;14.49;100.00;101610.16;5020486;28;20054;-64
2021/07/21 04:15:16;;;;;;;36.35;16.58;;;;;;;14.56;100.00;101605.78;5017960;28;20065;-64
2021/07/21 04:17:47;;;;;;;32.40;15.35;;;;;;;14.53;100.00;101604.28;5020265;28;20095;-64
2021/07/21 04:20:16;;;;;;;37.33;17.58;;;;;;;14.57;100.00;101610.16;5022803;28;20491;-63
2021/07/21 04:22:44;;;;;;;31.45;14.75;;;;;;;14.39;100.00;101616.56;5020988;28;20295;-64
2021/07/21 04:25:14;;;;;;;31.05;15.63;;;;;;;14.44;100.00;101627.66;5016192;28;20034;-63
2021/07/21 04:27:44;;;;;;;37.40;15.25;;;;;;;14.15;100.00;101625.47;5022698;28;20448;-63
2021/07/21 04:30:13;;;;;;;28.27;14.13;;;;;;;13.96;100.00;101629.28;5018111;28;20046;-64
2021/07/21 04:32:41;;;;;;;29.63;14.52;;;;;;;13.98;100.00;101640.72;5020897;28;20041;-64
2021/07/21 04:35:16;;;;;;;32.25;15.13;;;;;;;13.91;100.00;101637.00;5018545;28;20064;-64
2021/07/21 04:37:44;;;;;;;33.50;15.48;;;;;;;13.93;100.00;101637.69;5019420;28;20063;-64
2021/07/21 04:40:14;;;;;;;38.15;17.08;;;;;;;13.99;100.00;101642.41;5023117;28;20087;-64
2021/07/21 04:42:44;;;;;;;34.20;15.43;;;;;;;14.05;100.00;101641.72;5018801;28;20111;-64
2021/07/21 04:45:13;;;;;;;38.70;16.08;;;;;;;14.14;100.00;101649.81;5017039;28;20038;-64
2021/07/21 04:47:42;;;;;;;38.05;17.45;;;;;;;14.14;100.00;101645.25;5017093;28;20129;-64
2021/07/21 04:50:12;;;;;;;37.90;15.63;;;;;;;14.14;100.00;101647.13;5021390;28;20058;-64
2021/07/21 04:52:40;;;;;;;31.90;15.88;;;;;;;14.27;100.00;101647.44;5018463;28;20180;-64
2021/07/21 04:55:09;;;;;;;30.67;14.50;;;;;;;14.38;100.00;101654.34;5020830;28;20046;-64
2021/07/21 04:57:37;;;;;;;35.90;16.30;;;;;;;14.35;100.00;101650.16;5021422;28;20046;-64
2021/07/21 05:00:07;;;;;;;30.27;14.15;;;;;;;14.41;100.00;101657.53;5017904;28;20057;-64
2021/07/21 05:02:35;;;;;;;30.95;13.55;;;;;;;14.33;100.00;101662.91;5021053;28;20046;-64
2021/07/21 05:05:04;;;;;;;32.70;15.10;;;;;;;14.28;100.00;101666.09;5019455;28;20045;-64
2021/07/21 05:07:32;;;;;;;29.13;14.00;;;;;;;14.32;100.00;101663.06;5017620;28;20072;-64
2021/07/21 05:10:00;;;;;;;30.55;13.82;;;;;;;14.38;100.00;101670.47;5020972;28;20264;-64
2021/07/21 05:12:28;;;;;;;34.10;14.30;;;;;;;14.39;100.00;101675.69;5018812;28;20049;-64
2021/07/21 05:14:56;;;;;;;38.63;15.95;;;;;;;14.41;100.00;101680.88;5014790;28;20131;-64
2021/07/21 05:17:25;;;;;;;30.70;15.15;;;;;;;14.46;100.00;101687.44;5018972;28;20104;-65
2021/07/21 05:19:53;;;;;;;34.03;15.65;;;;;;;14.77;100.00;101684.09;5018029;28;20050;-64
2021/07/21 05:22:21;;;;;;;36.67;15.38;;;;;;;14.85;100.00;101674.34;5020161;28;20322;-64
2021/07/21 05:24:49;;;;;;;30.50;15.02;;;;;;;14.96;100.00;101687.44;5017415;28;20676;-64
2021/07/21 05:27:16;;;;;;;32.08;14.25;;;;;;;14.80;100.00;101689.13;5023200;28;20041;-64
2021/07/21 05:29:44;;;;;;;37.78;15.20;;;;;;;14.96;100.00;101682.88;5017525;28;20049;-64
2021/07/21 05:32:12;;;;;;;30.30;14.35;;;;;;;15.01;100.00;101681.53;5015250;28;20092;-64
2021/07/21 05:34:42;;;;;;;31.38;14.98;;;;;;;15.09;100.00;101685.03;5019148;28;20045;-64
2021/07/21 05:37:10;;;;;;;30.08;14.23;;;;;;;15.15;100.00;101687.06;5017483;28;20129;-64
2021/07/21 05:39:38;;;;;;;34.70;14.10;;;;;;;15.17;100.00;101683.31;5020631;28;20378;-64
2021/07/21 05:42:06;;;;;;;30.55;14.38;;;;;;;15.27;100.00;101692.06;5019898;28;20045;-64
2021/07/21 05:44:34;;;;;;;32.70;13.95;;;;;;;15.41;100.00;101695.88;5018191;28;20458;-64
2021/07/21 05:47:02;;;;;;;32.53;14.73;;;;;;;15.62;100.00;101689.91;5015704;28;20140;-64
2021/07/21 05:49:30;;;;;;;28.73;13.95;;;;;;;15.86;100.00;101693.53;5017788;28;20033;-64
2021/07/21 05:52:02;;;;;;;28.83;14.05;;;;;;;16.37;100.00;101679.53;5020886;28;20377;-64
2021/07/21 05:54:29;;;;;;;31.83;14.23;;;;;;;16.93;100.00;101668.47;5012279;28;20045;-64
2021/07/21 05:56:57;;;;;;;29.63;14.40;;;;;;;17.55;100.00;101656.44;5021040;28;20050;-64
2021/07/21 05:59:25;;;;;;;29.90;13.90;;;;;;;18.29;100.00;101647.25;5020379;28;20042;-64
2021/07/21 06:01:53;;;;;;;23.98;13.48;;;;;;;18.84;100.00;101652.91;5016966;28;20045;-64
2021/07/21 06:04:21;;;;;;;24.83;12.98;;;;;;;19.10;100.00;101646.81;5020255;28;20457;-64
2021/07/21 06:06:49;;;;;;;26.30;12.90;;;;;;;19.37;100.00;101640.72;5017224;28;20449;-64
2021/07/21 06:09:19;;;;;;;25.00;13.07;;;;;;;19.73;100.00;101650.44;5023058;28;20045;-63
2021/07/21 06:11:47;;;;;;;27.67;14.45;;;;;;;19.96;100.00;101658.25;5020303;28;20041;-64
2021/07/21 06:14:15;;;;;;;24.88;13.38;;;;;;;20.34;100.00;101648.69;5016843;28;20046;-64
2021/07/21 06:16:43;;;;;;;22.70;12.07;;;;;;;20.44;100.00;101654.53;5016523;28;20084;-64
2021/07/21 06:19:11;;;;;;;22.23;11.73;;;;;;;20.48;100.00;101655.78;5017919;28;20516;-64
2021/07/21 06:21:39;;;;;;;23.83;11.57;;;;;;;20.56;100.00;101655.56;5016377;28;20046;-64
2021/07/21 06:24:07;;;;;;;22.90;12.48;;;;;;;20.78;100.00;101655.38;5017324;28;20045;-65
2021/07/21 06:26:36;;;;;;;23.63;12.25;;;;;;;21.13;100.00;101660.53;5018238;28;20052;-64
2021/07/21 06:29:04;;;;;;;23.17;13.65;;;;;;;21.41;100.00;101664.84;5020787;28;20049;-64
2021/07/21 06:31:36;;;;;;;23.13;12.30;;;;;;;21.49;100.00;101667.28;5018816;28;20038;-65
2021/07/21 06:34:04;;;;;;;27.52;13.90;;;;;;;21.72;100.00;101661.38;5014807;28;20045;-64
2021/07/21 06:36:31;;;;;;;22.67;12.75;;;;;;;21.94;100.00;101671.91;5019183;28;20923;-64
2021/07/21 06:38:59;;;;;;;23.17;11.85;;;;;;;22.28;100.00;101675.25;5013711;28;20503;-64
2021/07/21 06:41:27;;;;;;;21.58;13.18;;;;;;;22.80;100.00;101673.16;5021292;28;20053;-65
2021/07/21 06:44:00;;;;;;;25.58;13.82;;;;;;;22.58;100.00;101664.56;5015801;28;20460;-64
2021/07/21 06:46:30;;;;;;;22.80;12.30;;;;;;;22.58;100.00;101674.63;5019144;28;20497;-64
2021/07/21 06:48:58;;;;;;;22.83;12.95;;;;;;;22.45;100.00;101670.13;5019313;28;20128;-64
2021/07/21 06:51:26;;;;;;;25.05;12.20;;;;;;;23.01;100.00;101679.25;5017087;28;20112;-64
2021/07/21 06:53:54;;;;;;;23.88;13.07;;;;;;;22.94;100.00;101684.75;5016508;28;20429;-64
2021/07/21 06:56:22;;;;;;;28.02;13.23;;;;;;;23.16;100.00;101681.63;5016396;28;20096;-64
2021/07/21 06:58:52;;;;;;;21.40;13.05;;;;;;;23.26;100.00;101681.09;5017648;28;20041;-65
2021/07/21 07:01:21;;;;;;;23.08;12.35;;;;;;;23.41;100.00;101675.28;5016426;28;20115;-64
2021/07/21 07:03:50;;;;;;;21.90;14.00;;;;;;;23.47;100.00;101687.97;5017336;28;20337;-65
2021/07/21 07:06:17;;;;;;;29.92;13.07;;;;;;;24.19;100.00;101690.78;5019446;28;20033;-65
2021/07/21 07:08:45;;;;;;;22.10;12.52;;;;;;;24.39;100.00;101685.00;5013822;28;20050;-65
2021/07/21 07:11:13;;;;;;;20.02;12.35;;;;;;;24.62;100.00;101688.88;5017278;28;20045;-64
2021/07/21 07:13:41;;;;;;;19.27;11.52;;;;;;;24.36;100.00;101690.94;5017077;28;20050;-65
2021/07/21 07:16:12;;;;;;;22.27;12.18;;;;;;;24.58;100.00;101698.56;5010388;28;20072;-65
2021/07/21 07:18:42;;;;;;;21.15;12.00;;;;;;;24.90;100.00;101690.06;5016006;28;20140;-65
2021/07/21 07:21:09;;;;;;;23.50;12.55;;;;;;;24.31;100.00;101690.00;5016446;28;20092;-65
2021/07/21 07:23:37;;;;;;;21.10;10.82;;;;;;;24.33;100.00;101691.41;5011054;28;20989;-64
2021/07/21 07:26:06;;;;;;;24.40;12.95;;;;;;;23.14;100.00;101687.31;5016900;28;20421;-65
2021/07/21 07:28:33;;;;;;;19.27;10.95;;;;;;;24.28;100.00;101693.19;5016879;28;20034;-65
2021/07/21 07:31:01;;;;;;;18.35;11.38;;;;;;;24.08;100.00;101688.88;5019480;28;20042;-65
2021/07/21 07:33:30;;;;;;;19.95;10.70;;;;;;;24.88;100.00;101692.22;5018974;28;20050;-65
2021/07/21 07:35:59;;;;;;;18.38;10.52;;;;;;;25.13;100.00;101693.84;5019769;28;20049;-66
2021/07/21 07:38:27;;;;;;;20.15;11.18;;;;;;;24.94;100.00;101695.91;5022000;28;20053;-64
2021/07/21 07:40:55;;;;;;;20.95;11.35;;;;;;;25.28;100.00;101694.19;5022044;28;20046;-64
2021/07/21 07:43:22;;;;;;;20.38;12.30;;;;;;;24.79;100.00;101688.19;5020773;28;20045;-65
2021/07/21 07:45:52;;;;;;;20.83;11.80;;;;;;;25.33;100.00;101694.31;5017893;28;20061;-65
2021/07/21 07:48:19;;;;;;;19.00;9.52;;;;;;;26.01;100.00;101693.75;5021042;28;20491;-64
2021/07/21 07:50:47;;;;;;;18.42;12.13;;;;;;;25.63;100.00;101696.03;5020870;28;20049;-64
2021/07/21 07:53:17;;;;;;;18.10;10.30;;;;;;;25.75;100.00;101696.81;5019959;28;20048;-64
2021/07/21 07:55:45;;;;;;;19.60;11.63;;;;;;;26.28;100.00;101691.22;5021988;28;20484;-64
2021/07/21 07:58:13;;;;;;;18.05;10.45;;;;;;;25.40;100.00;101700.50;5019781;28;20050;-64
2021/07/21 08:00:41;;;;;;;17.83;9.88;;;;;;;24.93;100.00;101697.78;5021113;28;20045;-66
2021/07/21 08:03:09;;;;;;;15.80;10.07;;;;;;;26.35;100.00;101693.81;5019424;28;20508;-64
2021/07/21 08:05:37;;;;;;;17.52;9.55;;;;;;;26.30;100.00;101700.03;5019015;28;20430;-64
2021/07/21 08:08:06;;;;;;;13.25;9.18;;;;;;;27.23;100.00;101698.69;5024169;28;20046;-64
2021/07/21 08:10:35;;;;;;;18.45;8.65;;;;;;;26.23;100.00;101693.88;5018895;28;20064;-64
2021/07/21 08:13:04;;;;;;;15.68;9.35;;;;;;;26.70;100.00;101698.22;5022740;28;20049;-64
2021/07/21 08:15:32;;;;;;;14.88;8.55;;;;;;;26.67;100.00;101695.97;5018608;28;20045;-64
2021/07/21 08:18:00;;;;;;;15.40;8.30;;;;;;;26.55;100.00;101698.78;5019555;28;20140;-64
2021/07/21 08:20:28;;;;;;;12.98;8.05;;;;;;;26.01;100.00;101691.84;5017982;28;20145;-66
2021/07/21 08:22:58;;;;;;;15.52;9.00;;;;;;;26.74;100.00;101697.47;5017401;28;20041;-64
2021/07/21 08:25:27;;;;;;;17.90;9.15;;;;;;;26.64;100.00;101694.56;5014693;28;20037;-64
2021/07/21 08:27:56;;;;;;;15.23;8.27;;;;;;;26.71;100.00;101699.88;5021310;28;20045;-63
2021/07/21 08:30:25;;;;;;;15.07;9.13;;;;;;;26.50;100.00;101695.97;5018264;28;20049;-64
2021/07/21 08:32:54;;;;;;;12.73;7.88;;;;;;;25.76;100.00;101693.00;5020055;28;20111;-64
2021/07/21 08:35:25;;;;;;;14.32;9.35;;;;;;;25.39;100.00;101693.38;5013607;28;20408;-64
2021/07/21 08:37:53;;;;;;;14.75;7.72;;;;;;;25.40;100.00;101695.03;5018212;28;20049;-64
2021/07/21 08:40:22;;;;;;;15.55;9.25;;;;;;;26.00;100.00;101687.44;5015532;28;20173;-64
2021/07/21 08:42:50;;;;;;;14.82;9.32;;;;;;;25.73;100.00;101690.75;5021299;28;20056;-64
2021/07/21 08:45:20;;;;;;;15.10;9.10;;;;;;;26.18;100.00;101694.59;5017940;28;20401;-64
2021/07/21 08:47:48;;;;;;;17.33;9.40;;;;;;;25.98;100.00;101697.78;5023629;28;20433;-64
2021/07/21 08:50:16;;;;;;;16.17;9.73;;;;;;;26.16;100.00;101690.47;5017864;28;20129;-64
2021/07/21 08:52:44;;;;;;;20.25;9.63;;;;;;;25.47;100.00;101694.06;5020067;28;20045;-64
2021/07/21 08:55:14;;;;;;;16.08;10.13;;;;;;;25.49;100.00;101683.69;5014837;28;20061;-66
2021/07/21 08:57:42;;;;;;;13.10;8.43;;;;;;;26.26;100.00;101691.47;5015952;28;20072;-65
2021/07/21 09:00:14;;;;;;;15.30;9.35;;;;;;;26.05;100.00;101698.47;5016554;28;20234;-64
2021/07/21 09:02:44;;;;;;;16.63;10.25;;;;;;;25.52;100.00;101692.25;5017086;28;20421;-64
2021/07/21 09:05:15;;;;;;;15.60;9.43;;;;;;;25.63;100.00;101690.56;5016460;28;20041;-64
2021/07/21 09:07:43;;;;;;;17.67;9.55;;;;;;;25.53;100.00;101687.63;5024009;28;20049;-66
2021/07/21 09:10:13;;;;;;;18.35;11.07;;;;;;;25.63;100.00;101687.84;5016074;28;20457;-64
2021/07/21 09:12:43;;;;;;;17.20;9.65;;;;;;;26.37;100.00;101688.94;5019401;28;20065;-64
2021/07/21 09:15:13;;;;;;;18.40;10.55;;;;;;;26.44;100.00;101695.06;5016953;28;20049;-64
2021/07/21 09:18:05;;;;;;;17.95;9.40;;;;;;;25.87;100.00;101693.19;5017164;28;20041;-64
2021/07/21 09:20:34;;;;;;;15.20;8.73;;;;;;;27.12;100.00;101689.53;5014881;28;20321;-64
2021/07/21 09:23:03;;;;;;;19.98;9.98;;;;;;;27.27;100.00;101691.63;5021122;28;20099;-64
2021/07/21 09:25:33;;;;;;;16.60;9.02;;;;;;;27.87;100.00;101697.28;5010722;28;20049;-64
2021/07/21 09:28:03;;;;;;;13.88;9.02;;;;;;;26.33;100.00;101691.31;5016901;28;20129;-64
2021/07/21 09:30:33;;;;;;;13.98;9.93;;;;;;;26.81;100.00;101700.06;5018670;28;20369;-64
2021/07/21 09:33:04;;;;;;;14.90;9.73;;;;;;;26.82;100.00;101698.13;5019057;28;20042;-63
2021/07/21 09:35:33;;;;;;;17.33;9.50;;;;;;;26.20;100.00;101697.94;5019825;28;20137;-63
2021/07/21 09:38:05;;;;;;;17.45;9.85;;;;;;;27.65;100.00;101690.75;5016715;28;20496;-64
2021/07/21 09:40:35;;;;;;;16.17;9.40;;;;;;;27.43;100.00;101698.16;5020835;28;20061;-64
2021/07/21 09:43:04;;;;;;;16.58;9.85;;;;;;;27.83;100.00;101691.50;5035210;28;20049;-65
2021/07/21 09:45:37;;;;;;;15.25;9.07;;;;;;;27.00;100.00;101702.50;5018020;28;20053;-64
2021/07/21 09:48:06;;;;;;;17.67;10.13;;;;;;;27.40;100.00;101695.94;5018675;28;20353;-65
2021/07/21 09:50:35;;;;;;;19.75;10.63;;;;;;;27.39;100.00;101691.53;5013625;28;20104;-64
2021/07/21 09:53:07;;;;;;;17.45;9.82;;;;;;;26.37;100.00;101697.97;5020273;28;20318;-64
2021/07/21 09:55:37;;;;;;;16.38;9.60;;;;;;;27.09;100.00;101693.59;5014674;28;20050;-64
2021/07/21 09:58:07;;;;;;;14.98;8.98;;;;;;;26.98;100.00;101695.34;5021921;28;20072;-64
2021/07/21 10:00:36;;;;;;;15.85;10.00;;;;;;;27.93;100.00;101696.25;5017111;28;20038;-65
2021/07/21 10:03:12;;;;;;;17.52;9.60;;;;;;;27.40;100.00;101688.56;5018736;28;20041;-64
2021/07/21 10:05:57;;;;;;;15.23;9.52;;;;;;;28.14;100.00;101687.16;5015846;28;20041;-64
2021/07/21 10:08:38;;;;;;;14.95;9.65;;;;;;;27.84;100.00;101693.13;5017172;28;20329;-64
2021/07/21 10:11:26;;;;;;;15.95;9.82;;;;;;;27.91;100.00;101703.91;5016825;28;20135;-64
2021/07/21 10:13:57;;;;;;;13.52;8.48;;;;;;;28.48;100.00;101686.03;5021472;28;20365;-65
2021/07/21 10:16:36;;;;;;;17.10;9.48;;;;;;;28.13;100.00;101696.47;5014686;28;20089;-64
2021/07/21 10:19:08;;;;;;;12.73;8.50;;;;;;;28.87;100.00;101693.22;5018075;28;20146;-65
2021/07/21 10:21:38;;;;;;;15.48;9.23;;;;;;;27.64;100.00;101694.59;5016221;28;20038;-64
2021/07/21 10:24:07;;;;;;;14.48;8.70;;;;;;;27.45;100.00;101694.06;5015710;28;20045;-64
2021/07/21 10:26:34;;;;;;;13.60;8.88;;;;;;;28.09;100.00;101698.09;5016477;28;20115;-64
2021/07/21 10:29:03;;;;;;;13.68;8.68;;;;;;;28.77;100.00;101694.81;5017930;28;20049;-65
2021/07/21 10:31:31;;;;;;;14.25;8.57;;;;;;;27.41;100.00;101701.16;5015645;28;20041;-65
2021/07/21 10:33:59;;;;;;;12.75;8.27;;;;;;;28.67;100.00;101689.25;5015622;28;20091;-65
2021/07/21 10:36:30;;;;;;;14.75;9.52;;;;;;;28.16;100.00;101698.69;5018265;28;20041;-64
2021/07/21 10:38:59;;;;;;;15.43;9.68;;;;;;;28.31;100.00;101698.03;5016970;28;20057;-64
2021/07/21 10:41:29;;;;;;;13.40;8.85;;;;;;;28.11;100.00;101692.31;5014281;28;20049;-62
2021/07/21 10:43:58;;;;;;;13.85;8.20;;;;;;;28.28;100.00;101683.97;5017890;28;20038;-62
2021/07/21 10:46:37;;;;;;;14.77;8.98;;;;;;;27.18;100.00;101690.44;5018076;28;20065;-63
2021/07/21 10:49:23;;;;;;;14.50;9.75;;;;;;;28.94;100.00;101693.81;5015778;28;20108;-63
2021/07/21 10:55:05;;;;;;;14.25;8.98;;;;;;;28.55;100.00;101692.16;5001410;28;20083;-64
2021/07/21 11:00:22;;;;;;;15.23;9.88;;;;;;;27.89;100.00;101684.97;5014128;28;20050;-64
2021/07/21 11:02:51;;;;;;;15.00;8.70;;;;;;;28.39;100.00;101684.88;5014001;28;20042;-65
2021/07/21 11:05:38;;;;;;;14.50;9.15;;;;;;;28.76;100.00;101684.91;5011699;28;20042;-64
2021/07/21 11:08:16;;;;;;;14.48;8.70;;;;;;;28.10;100.00;101685.22;5020483;28;20422;-64
2021/07/21 11:10:46;;;;;;;19.00;10.60;;;;;;;25.70;100.00;101685.78;5017574;28;20037;-64
2021/07/21 11:13:15;;;;;;;16.05;8.75;;;;;;;25.67;100.00;101683.50;5019815;28;20060;-64
2021/07/21 11:15:45;;;;;;;17.35;11.13;;;;;;;25.48;100.00;101684.78;5021612;28;20339;-64
2021/07/21 11:18:42;;;;;;;15.73;9.13;;;;;;;27.11;100.00;101676.91;5018680;28;20086;-64
2021/07/21 11:21:13;;;;;;;16.85;9.35;;;;;;;27.71;100.00;101677.91;5020839;28;20287;-64
2021/07/21 11:23:47;;;;;;;15.55;8.80;;;;;;;28.94;100.00;101675.41;5018367;28;20042;-64
2021/07/21 11:26:39;;;;;;;;;;;;;;;27.79;100.00;101685.69;5023632;28;20041;-64
2021/07/21 11:29:43;;;;;;;15.30;9.45;;;;;;;28.36;100.00;101678.00;5022558;28;19921;-64